| time (UTC) | temp F | wind direction | speed MPH | gust MPH | rain 1hr in | rain 24hr in | rain mn in | humidity % | barometer mb |
| 20260503021539 | 46 | 0 | 0.0 | 0.0 | 0.00 | 0.28 | 0.26 | 59 | 1010.5 |
| 20260503020044 | 46 | 0 | 0.0 | 1.0 | 0.00 | 0.28 | 0.26 | 56 | 1010.6 |
| 20260503014551 | 47 | 68 | 0.0 | 3.0 | 0.00 | 0.28 | 0.26 | 52 | 1010.5 |
| 20260503013042 | 47 | 0 | 0.0 | 1.0 | 0.00 | 0.28 | 0.26 | 52 | 1010.3 |
| 20260503011540 | 48 | 0 | 0.0 | 1.0 | 0.00 | 0.28 | 0.26 | 49 | 1010.2 |
| 20260503010039 | 49 | 53 | 2.0 | 7.0 | 0.00 | 0.28 | 0.26 | 47 | 1010.0 |
| 20260503004537 | 50 | 74 | 0.0 | 6.0 | 0.00 | 0.28 | 0.26 | 46 | 1009.7 |
| 20260503003049 | 50 | 63 | 0.0 | 4.0 | 0.00 | 0.28 | 0.26 | 45 | 1009.8 |
| 20260503001549 | 51 | 64 | 1.0 | 4.0 | 0.00 | 0.28 | 0.26 | 43 | 1009.5 |
| 20260503000048 | 52 | 0 | 0.0 | 3.0 | 0.00 | 0.28 | 0.26 | 39 | 1009.3 |
| 20260502234552 | 53 | 0 | 1.0 | 5.0 | 0.00 | 0.28 | 0.26 | 40 | 1009.3 |
| 20260502233046 | 53 | 234 | 1.0 | 8.0 | 0.00 | 0.28 | 0.26 | 38 | 1009.2 |
| 20260502231538 | 53 | 5 | 0.0 | 3.0 | 0.00 | 0.28 | 0.26 | 38 | 1009.0 |
| 20260502230044 | 53 | 0 | 1.0 | 6.0 | 0.00 | 0.28 | 0.26 | 38 | 1008.9 |
| 20260502224543 | 53 | 0 | 0.0 | 4.0 | 0.00 | 0.28 | 0.26 | 40 | 1008.8 |
| 20260502223057 | 54 | 71 | 1.0 | 6.0 | 0.00 | 0.28 | 0.26 | 38 | 1008.7 |
| 20260502221539 | 54 | 208 | 1.0 | 3.0 | 0.00 | 0.28 | 0.26 | 41 | 1008.5 |
| 20260502220041 | 54 | 0 | 1.0 | 5.0 | 0.00 | 0.28 | 0.26 | 39 | 1008.5 |
| 20260502214552 | 54 | 0 | 1.0 | 5.0 | 0.00 | 0.28 | 0.26 | 44 | 1008.3 |
| 20260502213047 | 55 | 0 | 0.0 | 7.0 | 0.00 | 0.28 | 0.26 | 36 | 1008.2 |
| 20260502211550 | 55 | 225 | 1.0 | 3.0 | 0.00 | 0.28 | 0.26 | 42 | 1008.1 |
| 20260502210041 | 55 | 0 | 0.0 | 6.0 | 0.00 | 0.28 | 0.26 | 42 | 1008.0 |
| 20260502204541 | 55 | 0 | 0.0 | 4.0 | 0.00 | 0.28 | 0.26 | 39 | 1008.0 |
| 20260502203103 | 55 | 88 | 1.0 | 3.0 | 0.00 | 0.28 | 0.26 | 38 | 1008.0 |
| 20260502201542 | 56 | 150 | 0.0 | 6.0 | 0.00 | 0.28 | 0.26 | 36 | 1008.2 |
| 20260502200052 | 56 | 242 | 2.0 | 6.0 | 0.00 | 0.28 | 0.26 | 37 | 1008.3 |
| 20260502194544 | 56 | 105 | 1.0 | 4.0 | 0.00 | 0.28 | 0.26 | 42 | 1008.4 |
| 20260502193040 | 56 | 203 | 0.0 | 3.0 | 0.00 | 0.28 | 0.26 | 41 | 1008.6 |
| 20260502191544 | 55 | 0 | 0.0 | 3.0 | 0.00 | 0.28 | 0.26 | 42 | 1008.7 |
| 20260502190037 | 55 | 274 | 0.0 | 4.0 | 0.00 | 0.28 | 0.26 | 43 | 1008.7 |
| 20260502184545 | 55 | 296 | 2.0 | 6.0 | 0.00 | 0.28 | 0.26 | 44 | 1008.7 |
| 20260502183045 | 56 | 78 | 0.0 | 3.0 | 0.00 | 0.28 | 0.26 | 41 | 1008.8 |
| 20260502181545 | 56 | 180 | 0.0 | 5.0 | 0.00 | 0.28 | 0.26 | 41 | 1008.7 |
| 20260502163047 | 54 | 0 | 1.0 | 4.0 | 0.00 | 0.28 | 0.26 | 48 | 1009.2 |
| 20260502161554 | 54 | 0 | 0.0 | 8.0 | 0.00 | 0.28 | 0.26 | 53 | 1009.4 |
| 20260502151541 | 51 | 80 | 1.0 | 4.0 | 0.00 | 0.28 | 0.26 | 61 | 1010.0 |
| 20260502123107 | 45 | 0 | 1.0 | 5.0 | 0.01 | 0.28 | 0.26 | 89 | 1010.2 |
| 20260502121541 | 44 | 62 | 0.0 | 3.0 | 0.01 | 0.28 | 0.26 | 90 | 1009.9 |
| 20260502114537 | 45 | 0 | 1.0 | 4.0 | 0.01 | 0.28 | 0.26 | 92 | 1010.0 |
| 20260502113049 | 45 | 84 | 0.0 | 4.0 | 0.01 | 0.27 | 0.25 | 92 | 1009.7 |
| 20260502111546 | 47 | 0 | 0.0 | 4.0 | 0.01 | 0.27 | 0.25 | 95 | 1009.8 |
| 20260502110043 | 47 | 0 | 0.0 | 0.0 | 0.01 | 0.27 | 0.25 | 95 | 1009.5 |
| 20260502104541 | 47 | 0 | 0.0 | 0.0 | 0.01 | 0.27 | 0.25 | 95 | 1009.3 |
| 20260502103039 | 47 | 0 | 0.0 | 0.0 | 0.00 | 0.26 | 0.24 | 95 | 1009.2 |
| 20260502101540 | 47 | 0 | 0.0 | 0.0 | 0.01 | 0.26 | 0.24 | 95 | 1009.1 |
| 20260502070100 | 46 | 0 | 0.0 | 2.0 | 0.08 | 0.20 | 0.18 | 93 | 1009.3 |
| 20260502064552 | 47 | 206 | 1.0 | 2.0 | 0.06 | 0.17 | 0.15 | 93 | 1009.5 |
| 20260502063043 | 46 | 0 | 0.0 | 0.0 | 0.06 | 0.15 | 0.13 | 92 | 1009.3 |
| 20260502061538 | 47 | 0 | 0.0 | 2.0 | 0.06 | 0.13 | 0.11 | 91 | 1009.3 |
| 20260502060037 | 47 | 0 | 0.0 | 0.0 | 0.08 | 0.12 | 0.10 | 91 | 1009.4 |
| 20260502054538 | 47 | 0 | 0.0 | 2.0 | 0.07 | 0.11 | 0.09 | 90 | 1009.3 |
| 20260502053039 | 48 | 0 | 1.0 | 4.0 | 0.05 | 0.09 | 0.07 | 91 | 1009.4 |
| 20260502051556 | 48 | 0 | 0.0 | 0.0 | 0.03 | 0.06 | 0.04 | 90 | 1009.6 |
| 20260502050045 | 48 | 0 | 0.0 | 0.0 | 0.01 | 0.04 | 0.02 | 90 | 1009.4 |
| 20260502044543 | 48 | 0 | 0.0 | 0.0 | 0.02 | 0.04 | 0.02 | 89 | 1009.5 |
| 20260502043039 | 48 | 0 | 0.0 | 0.0 | 0.03 | 0.04 | 0.02 | 88 | 1009.7 |
| 20260502041537 | 49 | 0 | 0.0 | 0.0 | 0.03 | 0.03 | 0.01 | 86 | 1009.5 |
| 20260502040045 | 49 | 0 | 0.0 | 0.0 | 0.02 | 0.02 | 0.00 | 83 | 1009.7 |
| 20260502034543 | 50 | 0 | 0.0 | 0.0 | 0.02 | 0.02 | 0.02 | 80 | 1009.6 |
| 20260502033043 | 50 | 0 | 0.0 | 0.0 | 0.01 | 0.01 | 0.01 | 76 | 1009.6 |
| 20260502031540 | 51 | 0 | 0.0 | 0.0 | 0.00 | 0.00 | 0.00 | 74 | 1009.4 |
| 20260502030045 | 52 | 0 | 0.0 | 0.0 | 0.00 | 0.00 | 0.00 | 72 | 1009.1 |
| 20260502024539 | 53 | 0 | 0.0 | 0.0 | 0.00 | 0.00 | 0.00 | 66 | 1009.3 |
| 20260502023040 | 53 | 0 | 0.0 | 0.0 | 0.00 | 0.00 | 0.00 | 64 | 1009.2 |